Time;durP1;ratioP1;P1;durP2;ratioP2;P2;SDS_P1;SDS_P2;PMS_P1;PMS_P2;Temp;Humidity;BMP_temperature;BMP_pressure;BME280_temperature;BME280_humidity;BME280_pressure;Samples;Min_cycle;Max_cycle;Signal;HPM_P1;HPM_P2
2023/10/06 00:01:47;;;;;;;16.60;6.60;;;14.20;99.90;;;;;;5096474;28;20039;-89
2023/10/06 00:04:15;;;;;;;14.50;7.05;;;14.30;99.90;;;;;;5079845;28;20043;-89
2023/10/06 00:06:42;;;;;;;14.60;7.72;;;14.30;99.90;;;;;;5079940;28;20036;-89
2023/10/06 00:09:28;;;;;;;12.75;7.38;;;14.30;99.90;;;;;;5079184;28;20484;-89
2023/10/06 00:11:57;;;;;;;15.77;7.32;;;14.40;99.90;;;;;;5096294;28;20042;-90
2023/10/06 00:14:39;;;;;;;17.02;7.43;;;14.30;99.90;;;;;;5096381;28;20035;-89
2023/10/06 00:17:15;;;;;;;9.33;3.57;;;14.30;99.90;;;;;;5096073;28;20043;-89
2023/10/06 00:19:42;;;;;;;8.75;3.42;;;14.30;99.90;;;;;;5079323;28;20097;-89
2023/10/06 00:24:43;;;;;;;14.50;8.05;;;14.30;99.90;;;;;;5095872;28;20040;-89
2023/10/06 00:27:13;;;;;;;13.00;4.07;;;14.30;99.90;;;;;;5096050;28;20040;-89
2023/10/06 00:29:43;;;;;;;15.30;8.73;;;14.30;99.90;;;;;;5078705;28;20039;-89
2023/10/06 00:32:21;;;;;;;8.38;2.92;;;14.30;99.90;;;;;;5079166;28;20112;-90
2023/10/06 00:34:54;;;;;;;8.70;3.33;;;14.30;99.90;;;;;;5095757;28;20042;-90
2023/10/06 00:37:23;;;;;;;13.23;8.15;;;14.30;99.90;;;;;;5095838;28;20050;-89
2023/10/06 00:39:50;;;;;;;11.93;4.13;;;14.40;99.90;;;;;;5078633;28;20036;-89
2023/10/06 00:42:19;;;;;;;16.80;8.45;;;14.40;99.90;;;;;;5095532;28;20494;-89
2023/10/06 00:44:46;;;;;;;8.30;3.10;;;14.40;99.90;;;;;;5078921;28;20051;-88
2023/10/06 00:47:15;;;;;;;11.45;4.10;;;14.40;99.90;;;;;;5095503;28;20044;-89
2023/10/06 00:49:43;;;;;;;10.77;3.75;;;14.30;99.90;;;;;;5095166;28;20482;-89
2023/10/06 00:52:11;;;;;;;15.68;7.57;;;14.30;99.90;;;;;;5095778;28;20043;-89
2023/10/06 00:54:42;;;;;;;15.45;7.35;;;14.40;99.90;;;;;;5095551;28;20043;-90
2023/10/06 00:57:11;;;;;;;11.40;3.80;;;14.40;99.90;;;;;;5078520;28;20043;-89
2023/10/06 00:59:37;;;;;;;14.27;7.88;;;14.40;99.90;;;;;;5095443;28;20069;-90
2023/10/06 01:02:08;;;;;;;13.40;4.38;;;14.40;99.90;;;;;;5078432;28;20054;-89
2023/10/06 01:04:38;;;;;;;10.43;4.20;;;14.30;99.90;;;;;;5078307;28;20043;-89
2023/10/06 01:07:04;;;;;;;11.75;3.78;;;14.30;99.90;;;;;;5078251;28;20044;-90
2023/10/06 01:09:35;;;;;;;16.05;8.13;;;14.30;99.90;;;;;;5078271;28;20439;-89
2023/10/06 01:12:06;;;;;;;12.73;4.17;;;14.20;99.90;;;;;;5094947;28;20071;-90
2023/10/06 01:14:34;;;;;;;9.98;4.47;;;14.30;99.90;;;;;;5078055;28;20305;-90
2023/10/06 01:19:47;;;;;;;16.38;8.18;;;14.30;99.90;;;;;;5103360;28;20047;-90
2023/10/06 01:22:24;;;;;;;18.25;8.68;;;14.40;99.90;;;;;;5078045;28;20035;-90
2023/10/06 01:24:54;;;;;;;9.68;3.65;;;14.40;99.90;;;;;;5084857;28;20071;-89
2023/10/06 01:27:25;;;;;;;11.05;3.17;;;14.40;99.90;;;;;;5113460;28;20044;-90
2023/10/06 01:30:09;;;;;;;12.93;3.47;;;14.30;99.90;;;;;;5079020;28;20075;-90
2023/10/06 01:32:34;;;;;;;13.68;7.97;;;14.30;99.90;;;;;;5083434;28;20495;-89
2023/10/06 01:35:01;;;;;;;9.30;3.92;;;14.30;99.90;;;;;;5077874;28;20081;-89
2023/10/06 01:37:27;;;;;;;12.90;3.97;;;14.30;99.90;;;;;;5094665;28;20092;-89
2023/10/06 01:39:53;;;;;;;14.82;7.68;;;14.20;99.90;;;;;;5094338;28;20043;-89
2023/10/06 01:42:24;;;;;;;15.93;3.67;;;14.20;99.90;;;;;;5078045;28;20118;-89
2023/10/06 01:44:50;;;;;;;9.23;2.83;;;14.20;99.90;;;;;;5077869;28;20432;-89
2023/10/06 01:47:18;;;;;;;8.23;2.92;;;14.20;99.90;;;;;;5077664;28;20131;-89
2023/10/06 01:49:44;;;;;;;14.77;8.18;;;14.20;99.90;;;;;;5094220;28;20100;-89
2023/10/06 01:52:13;;;;;;;13.23;3.88;;;14.30;99.90;;;;;;5094628;28;20485;-89
2023/10/06 01:54:39;;;;;;;14.82;8.27;;;14.20;99.90;;;;;;5078317;28;20472;-89
2023/10/06 01:57:06;;;;;;;9.73;3.10;;;14.20;99.90;;;;;;5094661;28;20082;-89
2023/10/06 01:59:32;;;;;;;12.30;8.18;;;14.20;99.90;;;;;;5077458;28;20036;-89
2023/10/06 02:02:02;;;;;;;14.45;8.00;;;14.20;99.90;;;;;;5094404;28;20046;-89
2023/10/06 02:04:39;;;;;;;13.50;3.10;;;14.30;99.90;;;;;;5094463;28;20051;-89
2023/10/06 02:07:09;;;;;;;10.23;3.35;;;14.30;99.90;;;;;;5094110;28;20047;-89
2023/10/06 02:09:36;;;;;;;17.45;7.70;;;14.20;99.90;;;;;;5076976;28;20142;-89
2023/10/06 02:12:03;;;;;;;9.93;3.80;;;14.20;99.90;;;;;;5094485;28;20093;-89
2023/10/06 02:14:28;;;;;;;16.10;8.25;;;14.20;99.90;;;;;;5094478;28;20050;-89
2023/10/06 02:16:55;;;;;;;9.98;3.83;;;14.20;99.90;;;;;;5094187;28;20040;-89
2023/10/06 02:19:22;;;;;;;10.48;3.72;;;14.20;99.90;;;;;;5094131;28;20043;-89
2023/10/06 02:21:51;;;;;;;11.70;4.75;;;14.10;99.90;;;;;;5094454;28;20043;-89
2023/10/06 02:24:17;;;;;;;13.13;4.28;;;14.10;99.90;;;;;;5116604;28;20517;-89
2023/10/06 02:26:47;;;;;;;14.70;8.57;;;14.10;99.90;;;;;;5098075;28;20040;-89
2023/10/06 02:29:26;;;;;;;12.90;4.45;;;14.10;99.90;;;;;;5081460;28;20031;-89
2023/10/06 02:32:00;;;;;;;9.43;4.35;;;14.10;99.90;;;;;;5098306;28;20047;-89
2023/10/06 02:34:35;;;;;;;11.13;4.00;;;14.10;99.90;;;;;;5089931;28;20553;-89
2023/10/06 02:37:04;;;;;;;16.42;9.60;;;14.00;99.90;;;;;;5098004;28;20039;-89
2023/10/06 02:39:33;;;;;;;17.33;9.38;;;14.10;99.90;;;;;;5081026;28;20031;-89
2023/10/06 02:42:02;;;;;;;10.57;3.90;;;14.10;99.90;;;;;;5098183;28;20430;-89
2023/10/06 02:44:29;;;;;;;17.35;9.48;;;14.10;99.90;;;;;;5098185;28;20446;-89
2023/10/06 02:46:55;;;;;;;18.67;10.13;;;14.10;99.90;;;;;;5081202;28;20047;-89
2023/10/06 02:49:35;;;;;;;9.98;3.72;;;14.10;99.90;;;;;;5081508;28;20398;-90
2023/10/06 02:52:16;;;;;;;10.77;3.97;;;14.10;99.90;;;;;;5080929;28;20038;-90
2023/10/06 02:54:47;;;;;;;15.13;4.60;;;14.00;99.90;;;;;;5097812;28;20040;-90
2023/10/06 02:57:13;;;;;;;9.05;4.20;;;14.00;99.90;;;;;;5081471;28;20070;-89
2023/10/06 02:59:38;;;;;;;16.55;9.07;;;13.90;99.90;;;;;;5080570;28;20410;-89
2023/10/06 03:02:15;;;;;;;10.00;3.83;;;14.00;99.90;;;;;;5097858;28;20043;-89
2023/10/06 03:04:43;;;;;;;12.57;4.00;;;14.00;99.90;;;;;;5080745;28;20042;-89
2023/10/06 03:07:14;;;;;;;12.50;4.53;;;14.00;99.90;;;;;;5097332;28;20506;-89
2023/10/06 03:09:47;;;;;;;9.98;4.03;;;13.90;99.90;;;;;;5080598;28;20403;-89
2023/10/06 03:14:49;;;;;;;16.38;8.70;;;14.00;99.90;;;;;;5097511;28;20051;-89
2023/10/06 03:17:17;;;;;;;11.40;3.28;;;14.00;99.90;;;;;;5097007;28;20058;-89
2023/10/06 03:19:43;;;;;;;12.93;5.05;;;14.00;99.90;;;;;;5080386;28;20521;-89
2023/10/06 03:22:12;;;;;;;14.68;5.15;;;13.90;99.90;;;;;;5080840;28;20100;-89
2023/10/06 03:24:57;;;;;;;12.75;4.93;;;13.90;99.90;;;;;;5080256;28;20043;-89
2023/10/06 03:27:23;;;;;;;7.35;2.95;;;13.90;99.90;;;;;;5097043;28;20499;-89
2023/10/06 03:29:56;;;;;;;16.20;8.35;;;13.80;99.90;;;;;;5079785;28;20040;-89
2023/10/06 03:32:32;;;;;;;14.35;8.68;;;13.90;99.90;;;;;;5080268;28;20035;-89
2023/10/06 03:35:08;;;;;;;10.15;3.47;;;13.90;99.90;;;;;;5080405;28;20039;-89
2023/10/06 03:37:51;;;;;;;11.38;4.30;;;13.80;99.90;;;;;;5097477;28;20036;-89
2023/10/06 03:40:34;;;;;;;;;;;13.80;99.90;;;;;;5079941;28;20096;-89
2023/10/06 03:43:05;;;;;;;11.98;3.53;;;13.70;99.90;;;;;;5079938;28;19966;-89
2023/10/06 03:45:34;;;;;;;17.00;8.32;;;13.70;99.90;;;;;;5085362;28;20409;-89
2023/10/06 03:48:13;;;;;;;10.15;4.45;;;13.70;99.90;;;;;;5086043;28;20063;-89
2023/10/06 03:50:43;;;;;;;12.65;4.53;;;13.70;99.90;;;;;;5104679;28;20069;-89
2023/10/06 03:53:13;;;;;;;12.10;3.53;;;13.70;99.90;;;;;;5080060;28;20035;-88
2023/10/06 03:55:44;;;;;;;13.55;3.95;;;13.60;99.90;;;;;;5096902;28;20039;-89
2023/10/06 03:58:12;;;;;;;10.07;3.35;;;13.70;99.90;;;;;;5096759;28;20047;-89
2023/10/06 04:00:47;;;;;;;12.80;4.03;;;13.70;99.90;;;;;;5079925;28;20043;-89
2023/10/06 04:03:14;;;;;;;12.73;4.00;;;13.70;99.90;;;;;;5086511;28;20046;-89
2023/10/06 04:05:41;;;;;;;15.93;8.57;;;13.70;99.90;;;;;;5079693;28;20087;-88
2023/10/06 04:08:15;;;;;;;14.63;8.18;;;13.70;99.90;;;;;;5096257;28;20118;-88
2023/10/06 04:10:42;;;;;;;12.55;3.83;;;13.70;99.90;;;;;;5079772;28;20495;-88
2023/10/06 04:13:12;;;;;;;11.93;4.05;;;13.60;99.90;;;;;;5079870;28;20490;-88
2023/10/06 04:15:38;;;;;;;12.43;3.83;;;13.60;99.90;;;;;;5096341;28;20137;-89
2023/10/06 04:18:10;;;;;;;12.15;3.65;;;13.60;99.90;;;;;;5095731;28;20507;-89
2023/10/06 04:20:43;;;;;;;13.93;7.80;;;13.50;99.90;;;;;;5079200;28;20092;-89
2023/10/06 04:23:13;;;;;;;16.80;8.50;;;13.50;99.90;;;;;;5079310;28;20044;-89
2023/10/06 04:25:39;;;;;;;14.50;8.07;;;13.60;99.90;;;;;;5079061;28;20046;-89
2023/10/06 04:28:08;;;;;;;13.05;3.75;;;13.60;99.90;;;;;;5095564;28;20048;-89
2023/10/06 04:30:42;;;;;;;10.52;3.30;;;13.60;99.90;;;;;;5079252;28;20398;-89
2023/10/06 04:33:10;;;;;;;13.93;8.52;;;13.50;99.90;;;;;;5079202;28;20040;-89
2023/10/06 04:35:40;;;;;;;7.38;3.08;;;13.50;99.90;;;;;;5104289;28;20050;-89
2023/10/06 04:38:06;;;;;;;12.77;4.22;;;13.50;99.90;;;;;;5095809;28;20078;-89
2023/10/06 04:40:35;;;;;;;11.63;3.78;;;13.40;99.90;;;;;;5096095;28;20474;-88
2023/10/06 04:43:01;;;;;;;12.23;3.88;;;13.40;99.90;;;;;;5078734;28;20035;-88
2023/10/06 04:45:31;;;;;;;12.00;4.43;;;13.40;99.90;;;;;;5078577;28;20044;-88
2023/10/06 04:48:00;;;;;;;7.57;3.30;;;13.40;99.90;;;;;;5077413;28;20080;-88
2023/10/06 04:50:30;;;;;;;12.60;4.35;;;13.40;99.90;;;;;;5094979;28;20394;-89
2023/10/06 04:52:56;;;;;;;10.60;3.60;;;13.30;99.90;;;;;;5077736;28;20039;-89
2023/10/06 04:55:22;;;;;;;12.30;5.07;;;13.30;99.90;;;;;;5077466;28;20114;-88
2023/10/06 04:57:48;;;;;;;15.60;3.92;;;13.30;99.90;;;;;;5094741;28;20142;-88
2023/10/06 05:00:20;;;;;;;12.05;4.28;;;13.30;99.90;;;;;;5077583;28;20039;-89
2023/10/06 05:02:47;;;;;;;14.18;8.65;;;13.30;99.90;;;;;;5083763;28;20043;-89
2023/10/06 05:05:22;;;;;;;10.43;3.75;;;13.40;99.90;;;;;;5094713;28;20047;-88
2023/10/06 05:07:48;;;;;;;17.60;9.35;;;13.30;99.90;;;;;;5077778;28;20079;-88
2023/10/06 05:10:21;;;;;;;10.60;4.05;;;13.30;99.90;;;;;;5077519;28;20444;-88
2023/10/06 05:12:48;;;;;;;11.00;3.65;;;13.30;99.90;;;;;;5094812;28;20027;-88
2023/10/06 05:18:15;;;;;;;15.48;9.45;;;13.30;99.90;;;;;;5049862;28;20044;-88
2023/10/06 05:20:42;;;;;;;14.82;9.68;;;13.30;99.90;;;;;;5094304;28;20517;-88
2023/10/06 05:23:14;;;;;;;17.63;9.65;;;13.30;99.90;;;;;;5077886;28;20728;-88
2023/10/06 05:25:46;;;;;;;12.40;3.90;;;13.40;99.90;;;;;;5077813;28;20490;-89
2023/10/06 05:28:16;;;;;;;14.77;9.20;;;13.30;99.90;;;;;;5094299;28;20035;-89
2023/10/06 05:30:43;;;;;;;11.82;4.07;;;13.30;99.90;;;;;;5094162;28;20038;-88
2023/10/06 05:33:09;;;;;;;12.20;3.53;;;13.30;99.90;;;;;;5100749;28;20031;-88
2023/10/06 05:35:38;;;;;;;6.68;3.08;;;13.20;99.90;;;;;;5077620;28;20451;-88
2023/10/06 05:38:07;;;;;;;20.40;10.18;;;13.20;99.90;;;;;;5077434;28;20043;-87
2023/10/06 05:40:33;;;;;;;10.50;3.88;;;13.30;99.90;;;;;;5094285;28;20110;-88
2023/10/06 05:43:00;;;;;;;8.30;3.38;;;13.30;99.90;;;;;;5094557;28;20571;-88
2023/10/06 05:45:29;;;;;;;13.32;4.55;;;13.30;99.90;;;;;;5097864;28;20047;-88
2023/10/06 05:47:58;;;;;;;16.35;3.97;;;13.30;99.90;;;;;;5078527;28;20063;-88
2023/10/06 05:50:28;;;;;;;9.90;2.63;;;13.20;99.90;;;;;;5093908;28;20039;-88
2023/10/06 05:52:59;;;;;;;15.98;8.93;;;13.20;99.90;;;;;;5077309;28;20040;-88
2023/10/06 05:55:31;;;;;;;16.67;8.93;;;13.30;99.90;;;;;;5077646;28;20031;-88
2023/10/06 05:58:00;;;;;;;16.98;9.43;;;13.40;99.90;;;;;;5101824;28;20154;-88
2023/10/06 06:00:29;;;;;;;17.10;8.75;;;13.40;99.90;;;;;;5082927;28;20051;-89
2023/10/06 06:02:59;;;;;;;6.05;2.55;;;13.50;99.90;;;;;;5094685;28;20059;-89
2023/10/06 06:05:29;;;;;;;7.32;2.38;;;13.40;99.90;;;;;;5093388;28;20510;-89
2023/10/06 06:07:56;;;;;;;10.70;2.90;;;13.40;99.90;;;;;;5098216;28;20048;-88
2023/10/06 06:10:21;;;;;;;7.85;2.88;;;13.40;99.90;;;;;;5076941;28;20050;-88
2023/10/06 06:12:47;;;;;;;11.52;3.58;;;13.40;99.90;;;;;;5077171;28;20028;-89
2023/10/06 06:15:13;;;;;;;10.80;3.70;;;13.50;99.90;;;;;;5093967;28;20032;-89
2023/10/06 06:17:40;;;;;;;15.00;8.23;;;13.50;99.90;;;;;;5082397;28;20046;-89
2023/10/06 06:20:07;;;;;;;16.05;7.80;;;13.60;99.90;;;;;;5096606;28;20043;-89
2023/10/06 06:22:37;;;;;;;11.10;3.45;;;13.60;99.90;;;;;;5113129;28;20039;-89
2023/10/06 06:25:06;;;;;;;10.85;3.92;;;13.70;99.90;;;;;;5088354;28;20035;-89
2023/10/06 06:27:32;;;;;;;11.68;2.83;;;13.60;99.90;;;;;;5074376;28;20473;-89
2023/10/06 06:29:59;;;;;;;10.25;3.40;;;13.70;99.90;;;;;;5095028;28;20540;-89
2023/10/06 06:32:25;;;;;;;9.35;2.80;;;13.70;99.90;;;;;;5100513;28;20042;-89
2023/10/06 06:34:51;;;;;;;11.77;3.60;;;13.70;99.90;;;;;;5078400;28;20035;-89
2023/10/06 06:37:17;;;;;;;16.73;7.90;;;13.70;99.90;;;;;;5077917;28;20448;-89
2023/10/06 06:39:44;;;;;;;9.73;3.88;;;13.80;99.90;;;;;;5080971;28;20036;-89
2023/10/06 06:42:11;;;;;;;13.27;7.22;;;13.80;99.90;;;;;;5099377;28;20044;-89
2023/10/06 06:44:36;;;;;;;10.50;3.40;;;13.90;99.90;;;;;;5079773;28;20031;-89
2023/10/06 06:47:03;;;;;;;12.35;3.20;;;13.90;99.90;;;;;;5077673;28;20513;-89
2023/10/06 06:49:29;;;;;;;10.38;3.65;;;13.90;99.90;;;;;;5079978;28;20031;-89
2023/10/06 06:51:58;;;;;;;10.13;2.67;;;13.90;99.90;;;;;;5092982;28;20077;-89
2023/10/06 06:54:27;;;;;;;7.68;2.45;;;13.90;99.90;;;;;;5071494;28;20075;-88
2023/10/06 06:56:53;;;;;;;15.50;7.35;;;14.00;99.90;;;;;;5101516;28;20075;-89
2023/10/06 06:59:20;;;;;;;12.68;3.75;;;14.10;99.90;;;;;;5085137;28;20103;-89
2023/10/06 07:01:47;;;;;;;9.68;2.60;;;14.10;99.90;;;;;;5076822;28;20069;-89
2023/10/06 07:04:14;;;;;;;10.32;3.33;;;14.10;99.90;;;;;;5093714;28;20100;-90
2023/10/06 07:06:40;;;;;;;14.13;6.93;;;14.20;99.90;;;;;;5085002;28;20047;-89
2023/10/06 07:09:12;;;;;;;12.55;6.28;;;14.30;99.90;;;;;;5086197;28;20035;-89
2023/10/06 07:11:40;;;;;;;10.23;3.60;;;14.40;99.90;;;;;;5084835;28;20071;-89
2023/10/06 07:14:06;;;;;;;10.60;4.07;;;14.40;99.90;;;;;;5080920;28;20028;-89
2023/10/06 07:16:33;;;;;;;12.45;6.43;;;14.40;99.90;;;;;;5105467;28;20059;-89
2023/10/06 07:18:59;;;;;;;6.93;2.28;;;14.40;99.90;;;;;;5088704;28;20036;-90
2023/10/06 07:21:24;;;;;;;14.10;6.57;;;14.40;99.90;;;;;;5088330;28;20422;-89
2023/10/06 07:23:52;;;;;;;8.25;3.03;;;14.50;99.90;;;;;;5080017;28;20146;-89
2023/10/06 07:26:17;;;;;;;10.27;2.50;;;14.50;99.90;;;;;;5079662;28;20051;-89
2023/10/06 07:28:44;;;;;;;8.43;2.65;;;14.50;99.90;;;;;;5105310;28;20032;-89
2023/10/06 07:31:11;;;;;;;12.07;4.05;;;14.50;99.90;;;;;;5079477;28;20156;-89
2023/10/06 07:33:37;;;;;;;7.80;2.58;;;14.50;99.90;;;;;;5079711;28;20486;-90
2023/10/06 07:36:14;;;;;;;14.30;6.50;;;14.50;99.90;;;;;;5079963;28;20502;-89
2023/10/06 07:38:41;;;;;;;15.15;6.60;;;14.50;99.90;;;;;;5096689;28;20122;-89
2023/10/06 07:41:07;;;;;;;10.00;3.13;;;14.60;99.90;;;;;;5097620;28;20494;-89
2023/10/06 07:43:33;;;;;;;14.88;6.18;;;14.60;99.90;;;;;;5083859;28;20080;-89
2023/10/06 07:46:07;;;;;;;8.65;2.85;;;14.70;99.90;;;;;;5104814;28;20067;-89
2023/10/06 07:48:36;;;;;;;7.00;2.20;;;14.70;99.90;;;;;;5096490;28;20044;-89
2023/10/06 07:51:09;;;;;;;8.55;2.95;;;14.60;99.90;;;;;;5078922;28;20031;-89
2023/10/06 07:53:36;;;;;;;14.05;6.53;;;14.60;99.90;;;;;;5084411;28;20036;-89
2023/10/06 07:56:06;;;;;;;6.18;2.55;;;14.70;99.90;;;;;;5083964;27;20444;-89
2023/10/06 07:58:38;;;;;;;15.48;6.28;;;14.80;99.90;;;;;;5083343;28;20126;-89
2023/10/06 08:01:08;;;;;;;11.70;6.20;;;14.80;99.90;;;;;;5104807;28;20044;-89
2023/10/06 08:03:38;;;;;;;14.98;6.70;;;14.90;99.90;;;;;;5079646;28;20411;-89
2023/10/06 08:06:05;;;;;;;10.50;3.38;;;15.00;99.90;;;;;;5087885;28;20032;-89
2023/10/06 08:08:34;;;;;;;14.88;6.75;;;14.90;99.90;;;;;;5083307;28;20039;-89
2023/10/06 08:11:04;;;;;;;10.05;2.67;;;15.00;99.90;;;;;;5104164;28;20043;-89
2023/10/06 08:13:33;;;;;;;11.25;6.25;;;15.00;99.90;;;;;;5083105;28;20067;-90
2023/10/06 08:16:03;;;;;;;15.85;6.80;;;15.10;99.90;;;;;;5088435;28;20039;-89
2023/10/06 08:18:32;;;;;;;10.48;3.85;;;15.10;99.90;;;;;;5092601;28;20043;-90
2023/10/06 08:21:00;;;;;;;13.70;6.90;;;15.10;99.90;;;;;;5106984;28;20047;-89
2023/10/06 08:23:31;;;;;;;11.73;3.92;;;15.10;99.90;;;;;;5130519;28;20040;-89
2023/10/06 08:25:57;;;;;;;8.75;3.53;;;15.10;99.90;;;;;;5096561;28;20060;-89
2023/10/06 08:28:26;;;;;;;14.88;6.88;;;15.00;99.90;;;;;;5086905;27;20037;-89
2023/10/06 08:30:55;;;;;;;9.85;3.33;;;15.10;99.90;;;;;;5102630;27;20039;-89
2023/10/06 08:33:25;;;;;;;9.05;3.78;;;15.10;99.90;;;;;;5109413;27;20032;-89
2023/10/06 08:36:01;;;;;;;16.27;7.47;;;15.00;99.90;;;;;;5088078;27;20107;-89
2023/10/06 08:38:27;;;;;;;15.32;7.28;;;15.10;99.90;;;;;;5080121;28;20036;-89
2023/10/06 08:40:58;;;;;;;15.43;7.30;;;15.20;99.90;;;;;;5095811;27;20106;-89
2023/10/06 08:43:29;;;;;;;11.00;4.15;;;15.30;99.90;;;;;;5105673;28;20042;-89
2023/10/06 08:45:59;;;;;;;5.03;1.80;;;15.30;99.90;;;;;;5094724;28;20036;-87
2023/10/06 08:48:35;;;;;;;12.45;6.88;;;15.40;99.90;;;;;;5078005;28;20039;-89
2023/10/06 08:51:07;;;;;;;9.77;3.38;;;15.40;99.90;;;;;;5080097;27;20042;-89
2023/10/06 08:53:39;;;;;;;11.85;3.45;;;15.40;99.90;;;;;;5086097;28;20031;-88
2023/10/06 08:56:05;;;;;;;9.07;3.50;;;15.40;99.90;;;;;;5096421;27;20058;-89
2023/10/06 08:58:31;;;;;;;15.02;8.00;;;15.30;99.90;;;;;;5105680;27;20038;-89
2023/10/06 09:00:59;;;;;;;18.40;8.38;;;15.30;99.90;;;;;;5086020;27;20038;-89
2023/10/06 09:03:25;;;;;;;12.00;4.03;;;15.30;99.90;;;;;;5099487;28;20101;-89
2023/10/06 09:05:50;;;;;;;18.02;8.85;;;15.30;99.90;;;;;;5077993;28;20444;-89
2023/10/06 09:08:17;;;;;;;17.48;8.40;;;15.30;99.90;;;;;;5094572;28;20554;-89
2023/10/06 09:10:51;;;;;;;20.30;9.55;;;15.40;99.90;;;;;;5077680;28;20050;-89
2023/10/06 09:13:21;;;;;;;13.57;3.92;;;15.40;99.90;;;;;;5085997;28;20039;-89
2023/10/06 09:15:57;;;;;;;7.28;3.08;;;15.40;99.90;;;;;;5102766;28;20039;-89
2023/10/06 09:18:27;;;;;;;15.25;8.10;;;15.40;99.90;;;;;;5097827;28;20036;-89
2023/10/06 09:20:54;;;;;;;13.95;8.38;;;15.50;99.90;;;;;;5079301;28;20035;-88
2023/10/06 09:23:41;;;;;;;9.35;4.05;;;15.60;99.90;;;;;;5078121;28;20070;-89
2023/10/06 09:26:11;;;;;;;13.88;7.97;;;15.60;99.90;;;;;;5077563;28;20096;-88
2023/10/06 09:28:50;;;;;;;15.88;8.13;;;15.60;99.90;;;;;;5077482;28;20126;-88
2023/10/06 09:31:18;;;;;;;13.88;7.70;;;15.70;99.90;;;;;;5085201;28;20104;-88
2023/10/06 09:33:48;;;;;;;13.48;4.53;;;15.70;99.90;;;;;;5083135;28;20035;-88
2023/10/06 09:36:17;;;;;;;6.97;2.33;;;15.70;99.90;;;;;;5088283;27;20034;-89
2023/10/06 09:38:46;;;;;;;9.52;3.53;;;15.70;99.90;;;;;;5102342;27;20071;-89
2023/10/06 09:41:13;;;;;;;10.48;3.85;;;15.70;99.90;;;;;;5102456;27;20390;-88
2023/10/06 09:43:40;;;;;;;15.50;7.43;;;15.80;99.90;;;;;;5088130;27;20040;-89
2023/10/06 09:46:07;;;;;;;9.02;3.65;;;15.90;99.90;;;;;;5089666;27;20043;-89
2023/10/06 09:48:36;;;;;;;16.25;5.38;;;16.00;99.90;;;;;;5104129;28;20040;-89
2023/10/06 09:51:08;;;;;;;12.25;4.20;;;16.00;99.90;;;;;;5103550;27;20032;-89
2023/10/06 09:53:38;;;;;;;16.35;7.22;;;16.10;99.90;;;;;;5083673;28;20035;-89
2023/10/06 09:56:11;;;;;;;16.65;7.25;;;16.20;99.90;;;;;;5094454;28;20039;-89
2023/10/06 09:58:37;;;;;;;;;;;16.30;99.90;;;;;;5098708;27;20076;-90
2023/10/06 10:01:03;;;;;;;7.10;3.15;;;16.30;99.90;;;;;;5084449;27;20313;-89
2023/10/06 10:03:30;;;;;;;13.18;3.63;;;16.40;99.90;;;;;;5104763;28;20561;-89
2023/10/06 10:05:57;;;;;;;14.15;6.93;;;16.40;99.90;;;;;;5077779;28;20043;-89
2023/10/06 10:08:24;;;;;;;12.23;3.53;;;16.50;99.90;;;;;;5077385;28;20121;-89
2023/10/06 10:10:52;;;;;;;14.25;6.65;;;16.60;99.90;;;;;;5076809;28;20448;-89
2023/10/06 10:13:36;;;;;;;14.25;6.45;;;16.70;99.90;;;;;;5082652;28;20089;-89
2023/10/06 10:16:21;;;;;;;8.98;3.50;;;16.90;99.90;;;;;;5076615;28;20038;-89
2023/10/06 10:18:58;;;;;;;13.15;6.32;;;16.90;99.90;;;;;;5093349;28;20047;-89
2023/10/06 10:21:24;;;;;;;9.45;3.50;;;17.10;99.90;;;;;;5102442;28;20092;-90
2023/10/06 10:23:50;;;;;;;13.85;6.18;;;17.20;99.90;;;;;;5097530;28;20036;-90
2023/10/06 10:26:26;;;;;;;12.05;5.85;;;17.40;99.90;;;;;;5102464;28;20051;-90
2023/10/06 10:29:13;;;;;;;13.80;6.38;;;17.60;99.90;;;;;;5083487;28;20088;-90
2023/10/06 10:31:41;;;;;;;16.27;6.43;;;17.70;99.90;;;;;;5076371;28;20104;-90
2023/10/06 10:34:07;;;;;;;8.18;3.30;;;17.80;99.90;;;;;;5083669;28;20036;-90
2023/10/06 10:36:34;;;;;;;14.98;5.93;;;17.90;99.90;;;;;;5098223;28;20043;-90
2023/10/06 10:39:02;;;;;;;11.65;5.65;;;18.00;99.90;;;;;;5093926;28;20043;-90
2023/10/06 10:41:36;;;;;;;12.60;5.95;;;18.10;99.90;;;;;;5082075;28;20067;-90
2023/10/06 10:44:03;;;;;;;11.98;5.80;;;18.20;99.90;;;;;;5090554;28;20122;-91
2023/10/06 10:46:30;;;;;;;7.50;2.65;;;18.20;99.90;;;;;;5089359;28;20073;-91
2023/10/06 10:48:59;;;;;;;12.45;6.28;;;18.20;99.90;;;;;;5080799;28;20042;-90
2023/10/06 10:51:25;;;;;;;14.43;6.07;;;18.20;99.90;;;;;;5102903;28;20043;-90
2023/10/06 10:53:52;;;;;;;13.75;6.10;;;18.40;99.90;;;;;;5096902;28;20495;-91
2023/10/06 10:56:39;;;;;;;12.98;5.63;;;18.50;99.90;;;;;;5106418;28;20060;-90
2023/10/06 10:59:05;;;;;;;13.95;5.70;;;18.70;99.90;;;;;;5097343;28;20119;-91
2023/10/06 11:01:42;;;;;;;9.27;3.88;;;18.80;99.90;;;;;;5105897;28;20039;-91
2023/10/06 11:04:14;;;;;;;12.45;5.20;;;18.80;99.90;;;;;;5088044;28;20067;-91
2023/10/06 11:06:40;;;;;;;11.98;5.45;;;18.90;99.90;;;;;;5102495;28;20042;-91
2023/10/06 11:09:29;;;;;;;10.85;4.65;;;18.90;99.90;;;;;;5105708;27;20036;-90
2023/10/06 11:12:04;;;;;;;13.57;5.53;;;18.90;99.90;;;;;;5085479;27;20038;-90
2023/10/06 11:14:31;;;;;;;14.65;5.10;;;18.90;99.90;;;;;;5086964;27;20039;-90
2023/10/06 11:17:02;;;;;;;12.48;5.03;;;18.90;99.90;;;;;;5103697;27;20430;-91
2023/10/06 11:19:32;;;;;;;13.45;5.25;;;18.80;99.90;;;;;;5087665;27;20413;-90
2023/10/06 11:22:10;;;;;;;9.00;2.30;;;18.70;99.90;;;;;;5086671;27;20047;-90
2023/10/06 11:24:37;;;;;;;10.75;5.45;;;18.50;99.90;;;;;;5086964;27;20043;-90
2023/10/06 11:27:22;;;;;;;13.85;4.90;;;18.50;99.90;;;;;;5084450;27;20036;-90
2023/10/06 11:29:50;;;;;;;10.65;3.60;;;18.50;99.90;;;;;;5084804;28;20036;-90
2023/10/06 11:32:17;;;;;;;12.80;4.97;;;18.40;99.90;;;;;;5088347;27;20687;-90
2023/10/06 11:34:44;;;;;;;11.70;4.70;;;18.40;99.90;;;;;;5085717;27;20034;-89
2023/10/06 11:37:11;;;;;;;11.80;4.78;;;18.40;99.90;;;;;;5088122;27;20036;-89
2023/10/06 11:39:37;;;;;;;11.93;4.60;;;18.40;99.90;;;;;;5099323;28;20111;-89
2023/10/06 11:42:25;;;;;;;12.45;4.68;;;18.30;99.90;;;;;;5072092;28;20136;-90
2023/10/06 11:44:55;;;;;;;12.73;5.00;;;18.30;99.90;;;;;;5081645;28;20065;-89
2023/10/06 11:47:27;;;;;;;8.88;3.17;;;18.30;99.90;;;;;;5089543;27;20618;-89
2023/10/06 11:49:57;;;;;;;11.07;5.10;;;18.20;99.90;;;;;;5088520;28;20032;-89
2023/10/06 11:52:23;;;;;;;16.13;5.43;;;18.20;99.90;;;;;;5105074;27;20634;-89
2023/10/06 11:54:49;;;;;;;10.23;3.45;;;18.20;99.90;;;;;;5098144;28;20398;-90
2023/10/06 11:57:15;;;;;;;13.68;5.45;;;18.20;99.90;;;;;;5105392;28;20494;-90
2023/10/06 11:59:51;;;;;;;13.18;5.30;;;18.30;99.90;;;;;;5087511;28;20514;-91
2023/10/06 12:02:17;;;;;;;11.65;4.95;;;18.30;99.90;;;;;;5088115;28;20039;-89
2023/10/06 12:04:43;;;;;;;13.25;5.55;;;18.40;99.90;;;;;;5079257;27;20045;-90
2023/10/06 12:07:24;;;;;;;12.18;4.85;;;18.50;99.90;;;;;;5095759;28;20036;-90
2023/10/06 12:09:50;;;;;;;13.88;5.38;;;18.70;99.90;;;;;;5095869;28;20448;-90
2023/10/06 12:12:19;;;;;;;12.05;4.38;;;18.70;99.90;;;;;;5080638;27;20536;-89
2023/10/06 12:14:45;;;;;;;11.38;5.07;;;18.70;99.90;;;;;;5080068;28;20040;-90
2023/10/06 12:17:15;;;;;;;12.00;4.88;;;18.80;99.90;;;;;;5099273;27;20038;-90
2023/10/06 12:19:43;;;;;;;14.25;5.78;;;18.80;99.90;;;;;;5103665;28;20054;-90
2023/10/06 12:22:09;;;;;;;11.00;4.63;;;18.90;99.90;;;;;;5081283;28;20121;-90
2023/10/06 12:24:35;;;;;;;11.80;4.80;;;19.00;99.90;;;;;;5080823;28;20558;-90
2023/10/06 12:27:01;;;;;;;12.60;4.88;;;19.10;99.90;;;;;;5087348;28;20047;-90
2023/10/06 12:29:28;;;;;;;14.30;5.55;;;19.20;99.90;;;;;;5077799;28;20043;-90
2023/10/06 12:31:56;;;;;;;14.13;5.32;;;19.30;99.90;;;;;;5102415;28;20043;-90
2023/10/06 12:34:22;;;;;;;12.93;5.20;;;19.40;99.90;;;;;;5081010;28;20388;-90
2023/10/06 12:36:48;;;;;;;12.80;5.30;;;19.60;99.90;;;;;;5080764;28;20028;-90
2023/10/06 12:39:30;;;;;;;11.10;5.20;;;19.60;99.90;;;;;;5086788;28;20027;-90
2023/10/06 12:41:57;;;;;;;12.77;5.57;;;19.80;99.90;;;;;;5079704;28;20053;-90
2023/10/06 12:44:27;;;;;;;12.95;5.68;;;19.80;99.90;;;;;;5103200;28;20092;-90
2023/10/06 12:46:55;;;;;;;13.75;5.95;;;19.80;99.90;;;;;;5080204;28;20047;-90
2023/10/06 12:49:23;;;;;;;12.82;5.55;;;19.90;99.90;;;;;;5096740;28;20039;-90
2023/10/06 12:51:49;;;;;;;11.73;5.03;;;20.00;99.90;;;;;;5079256;28;20027;-90
2023/10/06 12:54:15;;;;;;;11.30;5.20;;;20.20;99.90;;;;;;5079769;28;20035;-90
2023/10/06 12:56:44;;;;;;;12.52;5.35;;;20.40;99.90;;;;;;5095932;28;20394;-90
2023/10/06 12:59:12;;;;;;;14.32;5.30;;;20.50;99.90;;;;;;5086715;28;20032;-90
2023/10/06 13:01:38;;;;;;;12.05;4.95;;;20.70;99.90;;;;;;5086288;28;20036;-91